sensor_id;sensor_type;location;lat;lon;timestamp;P1;durP1;ratioP1;P2;durP2;ratioP2
7501;SDS011;3792;47.740;7.606;2023-06-14T00:01:13;3.23;;;3.03;;
7501;SDS011;3792;47.740;7.606;2023-06-14T00:03:40;3.33;;;2.73;;
7501;SDS011;3792;47.740;7.606;2023-06-14T00:06:07;3.47;;;2.83;;
7501;SDS011;3792;47.740;7.606;2023-06-14T00:08:36;3.47;;;3.20;;
7501;SDS011;3792;47.740;7.606;2023-06-14T00:11:03;3.37;;;3.07;;
7501;SDS011;3792;47.740;7.606;2023-06-14T00:13:30;5.53;;;2.77;;
7501;SDS011;3792;47.740;7.606;2023-06-14T00:15:57;3.27;;;2.97;;
7501;SDS011;3792;47.740;7.606;2023-06-14T00:18:24;3.43;;;3.13;;
7501;SDS011;3792;47.740;7.606;2023-06-14T00:20:54;3.10;;;2.80;;
7501;SDS011;3792;47.740;7.606;2023-06-14T00:23:21;3.83;;;3.33;;
7501;SDS011;3792;47.740;7.606;2023-06-14T00:25:49;5.27;;;3.20;;
7501;SDS011;3792;47.740;7.606;2023-06-14T00:28:17;3.87;;;3.57;;
7501;SDS011;3792;47.740;7.606;2023-06-14T00:30:43;4.70;;;3.10;;
7501;SDS011;3792;47.740;7.606;2023-06-14T00:33:11;4.50;;;2.97;;
7501;SDS011;3792;47.740;7.606;2023-06-14T00:35:39;3.53;;;3.23;;
7501;SDS011;3792;47.740;7.606;2023-06-14T00:38:07;3.53;;;3.23;;
7501;SDS011;3792;47.740;7.606;2023-06-14T00:40:33;3.50;;;3.00;;
7501;SDS011;3792;47.740;7.606;2023-06-14T00:43:02;3.33;;;3.00;;
7501;SDS011;3792;47.740;7.606;2023-06-14T00:45:29;3.23;;;2.93;;
7501;SDS011;3792;47.740;7.606;2023-06-14T00:48:00;4.13;;;3.23;;
7501;SDS011;3792;47.740;7.606;2023-06-14T00:50:28;3.47;;;2.80;;
7501;SDS011;3792;47.740;7.606;2023-06-14T00:52:57;3.00;;;2.70;;
7501;SDS011;3792;47.740;7.606;2023-06-14T00:55:24;3.60;;;3.30;;
7501;SDS011;3792;47.740;7.606;2023-06-14T00:57:51;4.70;;;3.00;;
7501;SDS011;3792;47.740;7.606;2023-06-14T01:00:21;4.37;;;3.03;;
7501;SDS011;3792;47.740;7.606;2023-06-14T01:02:48;2.90;;;2.70;;
7501;SDS011;3792;47.740;7.606;2023-06-14T01:05:15;3.20;;;2.97;;
7501;SDS011;3792;47.740;7.606;2023-06-14T01:07:46;3.50;;;2.97;;
7501;SDS011;3792;47.740;7.606;2023-06-14T01:10:30;3.40;;;2.63;;
7501;SDS011;3792;47.740;7.606;2023-06-14T01:13:03;4.47;;;3.30;;
7501;SDS011;3792;47.740;7.606;2023-06-14T01:15:38;3.53;;;2.90;;
7501;SDS011;3792;47.740;7.606;2023-06-14T01:18:07;4.00;;;3.50;;
7501;SDS011;3792;47.740;7.606;2023-06-14T01:20:42;3.57;;;3.27;;
7501;SDS011;3792;47.740;7.606;2023-06-14T01:23:11;4.90;;;3.13;;
7501;SDS011;3792;47.740;7.606;2023-06-14T01:25:38;5.23;;;3.03;;
7501;SDS011;3792;47.740;7.606;2023-06-14T01:28:06;2.80;;;2.60;;
7501;SDS011;3792;47.740;7.606;2023-06-14T01:30:35;3.87;;;2.80;;
7501;SDS011;3792;47.740;7.606;2023-06-14T01:33:03;4.33;;;3.00;;
7501;SDS011;3792;47.740;7.606;2023-06-14T01:35:31;3.73;;;3.40;;
7501;SDS011;3792;47.740;7.606;2023-06-14T01:37:58;3.07;;;2.80;;
7501;SDS011;3792;47.740;7.606;2023-06-14T01:40:28;5.47;;;3.17;;
7501;SDS011;3792;47.740;7.606;2023-06-14T01:42:56;3.40;;;3.10;;
7501;SDS011;3792;47.740;7.606;2023-06-14T01:45:25;4.20;;;3.10;;
7501;SDS011;3792;47.740;7.606;2023-06-14T01:47:52;3.30;;;3.00;;
7501;SDS011;3792;47.740;7.606;2023-06-14T01:50:20;3.27;;;2.97;;
7501;SDS011;3792;47.740;7.606;2023-06-14T01:52:47;4.33;;;3.17;;
7501;SDS011;3792;47.740;7.606;2023-06-14T01:55:14;3.77;;;3.10;;
7501;SDS011;3792;47.740;7.606;2023-06-14T01:57:44;2.83;;;2.63;;
7501;SDS011;3792;47.740;7.606;2023-06-14T02:00:11;3.80;;;2.90;;
7501;SDS011;3792;47.740;7.606;2023-06-14T02:02:39;3.23;;;2.93;;
7501;SDS011;3792;47.740;7.606;2023-06-14T02:05:06;3.27;;;2.97;;
7501;SDS011;3792;47.740;7.606;2023-06-14T02:07:34;3.53;;;2.93;;
7501;SDS011;3792;47.740;7.606;2023-06-14T02:10:01;3.10;;;2.80;;
7501;SDS011;3792;47.740;7.606;2023-06-14T02:12:28;3.40;;;3.10;;
7501;SDS011;3792;47.740;7.606;2023-06-14T02:14:56;3.50;;;3.10;;
7501;SDS011;3792;47.740;7.606;2023-06-14T02:17:24;3.43;;;3.13;;
7501;SDS011;3792;47.740;7.606;2023-06-14T02:19:51;3.20;;;3.00;;
7501;SDS011;3792;47.740;7.606;2023-06-14T02:22:18;3.97;;;3.07;;
7501;SDS011;3792;47.740;7.606;2023-06-14T02:24:47;3.50;;;3.20;;
7501;SDS011;3792;47.740;7.606;2023-06-14T02:27:14;3.00;;;2.80;;
7501;SDS011;3792;47.740;7.606;2023-06-14T02:29:41;4.83;;;2.90;;
7501;SDS011;3792;47.740;7.606;2023-06-14T02:32:10;2.83;;;2.63;;
7501;SDS011;3792;47.740;7.606;2023-06-14T02:34:37;3.83;;;3.23;;
7501;SDS011;3792;47.740;7.606;2023-06-14T02:37:06;3.03;;;2.73;;
7501;SDS011;3792;47.740;7.606;2023-06-14T02:39:33;4.13;;;3.10;;
7501;SDS011;3792;47.740;7.606;2023-06-14T02:42:01;3.37;;;3.07;;
7501;SDS011;3792;47.740;7.606;2023-06-14T02:44:28;3.40;;;2.97;;
7501;SDS011;3792;47.740;7.606;2023-06-14T02:46:55;3.50;;;2.87;;
7501;SDS011;3792;47.740;7.606;2023-06-14T02:49:25;3.87;;;3.00;;
7501;SDS011;3792;47.740;7.606;2023-06-14T02:51:52;3.50;;;3.20;;
7501;SDS011;3792;47.740;7.606;2023-06-14T02:54:19;4.90;;;3.27;;
7501;SDS011;3792;47.740;7.606;2023-06-14T02:56:46;2.77;;;2.57;;
7501;SDS011;3792;47.740;7.606;2023-06-14T02:59:13;3.57;;;3.27;;
7501;SDS011;3792;47.740;7.606;2023-06-14T03:01:40;3.57;;;2.87;;
7501;SDS011;3792;47.740;7.606;2023-06-14T03:04:07;2.90;;;2.70;;
7501;SDS011;3792;47.740;7.606;2023-06-14T03:06:36;2.77;;;2.43;;
7501;SDS011;3792;47.740;7.606;2023-06-14T03:09:04;3.60;;;2.80;;
7501;SDS011;3792;47.740;7.606;2023-06-14T03:11:32;4.17;;;2.97;;
7501;SDS011;3792;47.740;7.606;2023-06-14T03:13:59;4.87;;;3.10;;
7501;SDS011;3792;47.740;7.606;2023-06-14T03:16:28;3.67;;;2.67;;
7501;SDS011;3792;47.740;7.606;2023-06-14T03:18:56;3.20;;;3.00;;
7501;SDS011;3792;47.740;7.606;2023-06-14T03:21:23;3.63;;;2.60;;
7501;SDS011;3792;47.740;7.606;2023-06-14T03:23:52;3.77;;;2.67;;
7501;SDS011;3792;47.740;7.606;2023-06-14T03:26:19;2.70;;;2.50;;
7501;SDS011;3792;47.740;7.606;2023-06-14T03:28:47;3.67;;;2.87;;
7501;SDS011;3792;47.740;7.606;2023-06-14T03:31:14;3.17;;;2.87;;
7501;SDS011;3792;47.740;7.606;2023-06-14T03:33:42;4.03;;;2.73;;
7501;SDS011;3792;47.740;7.606;2023-06-14T03:36:09;3.53;;;2.80;;
7501;SDS011;3792;47.740;7.606;2023-06-14T03:38:36;4.37;;;3.17;;
7501;SDS011;3792;47.740;7.606;2023-06-14T03:41:04;4.00;;;2.90;;
7501;SDS011;3792;47.740;7.606;2023-06-14T03:43:31;4.00;;;2.80;;
7501;SDS011;3792;47.740;7.606;2023-06-14T03:45:59;3.73;;;3.17;;
7501;SDS011;3792;47.740;7.606;2023-06-14T03:48:26;3.10;;;2.80;;
7501;SDS011;3792;47.740;7.606;2023-06-14T03:50:53;3.17;;;2.97;;
7501;SDS011;3792;47.740;7.606;2023-06-14T03:53:21;4.27;;;3.23;;
7501;SDS011;3792;47.740;7.606;2023-06-14T03:55:48;3.00;;;2.80;;
7501;SDS011;3792;47.740;7.606;2023-06-14T03:58:18;3.23;;;2.90;;
7501;SDS011;3792;47.740;7.606;2023-06-14T04:00:45;3.73;;;3.17;;
7501;SDS011;3792;47.740;7.606;2023-06-14T04:03:12;3.40;;;3.10;;
7501;SDS011;3792;47.740;7.606;2023-06-14T04:05:40;4.90;;;3.57;;
7501;SDS011;3792;47.740;7.606;2023-06-14T04:08:09;3.50;;;2.90;;
7501;SDS011;3792;47.740;7.606;2023-06-14T04:10:39;6.30;;;3.10;;
7501;SDS011;3792;47.740;7.606;2023-06-14T04:13:06;2.93;;;2.73;;
7501;SDS011;3792;47.740;7.606;2023-06-14T04:15:38;4.23;;;3.00;;
7501;SDS011;3792;47.740;7.606;2023-06-14T04:18:07;3.93;;;3.00;;
7501;SDS011;3792;47.740;7.606;2023-06-14T04:20:34;4.03;;;3.00;;
7501;SDS011;3792;47.740;7.606;2023-06-14T04:23:11;4.27;;;3.10;;
7501;SDS011;3792;47.740;7.606;2023-06-14T04:25:38;3.77;;;2.90;;
7501;SDS011;3792;47.740;7.606;2023-06-14T04:28:10;7.17;;;3.10;;
7501;SDS011;3792;47.740;7.606;2023-06-14T04:30:38;4.17;;;3.30;;
7501;SDS011;3792;47.740;7.606;2023-06-14T04:33:05;5.47;;;2.83;;
7501;SDS011;3792;47.740;7.606;2023-06-14T04:35:33;3.07;;;2.77;;
7501;SDS011;3792;47.740;7.606;2023-06-14T04:38:00;5.03;;;3.17;;
7501;SDS011;3792;47.740;7.606;2023-06-14T04:40:30;3.50;;;3.20;;
7501;SDS011;3792;47.740;7.606;2023-06-14T04:42:58;5.73;;;3.00;;
7501;SDS011;3792;47.740;7.606;2023-06-14T04:45:26;3.37;;;3.07;;
7501;SDS011;3792;47.740;7.606;2023-06-14T04:47:59;3.23;;;2.93;;
7501;SDS011;3792;47.740;7.606;2023-06-14T04:50:26;2.90;;;2.70;;
7501;SDS011;3792;47.740;7.606;2023-06-14T04:52:54;3.40;;;2.73;;
7501;SDS011;3792;47.740;7.606;2023-06-14T04:55:22;5.20;;;3.13;;
7501;SDS011;3792;47.740;7.606;2023-06-14T04:57:49;3.57;;;3.27;;
7501;SDS011;3792;47.740;7.606;2023-06-14T05:00:18;4.27;;;3.13;;
7501;SDS011;3792;47.740;7.606;2023-06-14T05:02:46;5.53;;;3.30;;
7501;SDS011;3792;47.740;7.606;2023-06-14T05:05:15;5.57;;;3.10;;
7501;SDS011;3792;47.740;7.606;2023-06-14T05:07:44;5.20;;;3.20;;
7501;SDS011;3792;47.740;7.606;2023-06-14T05:10:12;3.93;;;2.87;;
7501;SDS011;3792;47.740;7.606;2023-06-14T05:12:39;3.10;;;2.80;;
7501;SDS011;3792;47.740;7.606;2023-06-14T05:15:09;5.33;;;3.00;;
7501;SDS011;3792;47.740;7.606;2023-06-14T05:17:36;3.43;;;3.13;;
7501;SDS011;3792;47.740;7.606;2023-06-14T05:20:05;4.53;;;2.90;;
7501;SDS011;3792;47.740;7.606;2023-06-14T05:22:36;5.33;;;3.67;;
7501;SDS011;3792;47.740;7.606;2023-06-14T05:25:03;3.50;;;3.00;;
7501;SDS011;3792;47.740;7.606;2023-06-14T05:27:31;4.37;;;3.30;;
7501;SDS011;3792;47.740;7.606;2023-06-14T05:30:00;3.43;;;3.10;;
7501;SDS011;3792;47.740;7.606;2023-06-14T05:32:28;3.60;;;3.30;;
7501;SDS011;3792;47.740;7.606;2023-06-14T05:34:56;4.33;;;3.30;;
7501;SDS011;3792;47.740;7.606;2023-06-14T05:37:23;3.33;;;3.03;;
7501;SDS011;3792;47.740;7.606;2023-06-14T05:39:52;3.10;;;2.90;;
7501;SDS011;3792;47.740;7.606;2023-06-14T05:42:19;3.97;;;2.90;;
7501;SDS011;3792;47.740;7.606;2023-06-14T05:44:46;3.60;;;2.97;;
7501;SDS011;3792;47.740;7.606;2023-06-14T05:47:13;3.80;;;3.33;;
7501;SDS011;3792;47.740;7.606;2023-06-14T05:49:40;4.47;;;2.90;;
7501;SDS011;3792;47.740;7.606;2023-06-14T05:52:08;3.63;;;3.27;;
7501;SDS011;3792;47.740;7.606;2023-06-14T05:54:35;3.70;;;3.30;;
7501;SDS011;3792;47.740;7.606;2023-06-14T05:57:03;3.17;;;2.77;;
7501;SDS011;3792;47.740;7.606;2023-06-14T05:59:31;2.93;;;2.67;;
7501;SDS011;3792;47.740;7.606;2023-06-14T06:01:58;6.30;;;3.40;;
7501;SDS011;3792;47.740;7.606;2023-06-14T06:04:25;5.00;;;3.30;;
7501;SDS011;3792;47.740;7.606;2023-06-14T06:06:52;3.60;;;3.30;;
7501;SDS011;3792;47.740;7.606;2023-06-14T06:09:19;3.97;;;3.40;;
7501;SDS011;3792;47.740;7.606;2023-06-14T06:11:46;6.63;;;3.40;;
7501;SDS011;3792;47.740;7.606;2023-06-14T06:14:15;4.70;;;3.47;;
7501;SDS011;3792;47.740;7.606;2023-06-14T06:16:42;5.03;;;4.17;;
7501;SDS011;3792;47.740;7.606;2023-06-14T06:19:09;4.27;;;3.70;;
7501;SDS011;3792;47.740;7.606;2023-06-14T06:21:36;6.60;;;4.07;;
7501;SDS011;3792;47.740;7.606;2023-06-14T06:24:04;7.40;;;4.30;;
7501;SDS011;3792;47.740;7.606;2023-06-14T06:26:31;6.10;;;4.17;;
7501;SDS011;3792;47.740;7.606;2023-06-14T06:28:58;5.23;;;3.60;;
7501;SDS011;3792;47.740;7.606;2023-06-14T06:31:27;9.20;;;4.33;;
7501;SDS011;3792;47.740;7.606;2023-06-14T06:33:54;6.57;;;4.80;;
7501;SDS011;3792;47.740;7.606;2023-06-14T06:36:21;6.00;;;4.33;;
7501;SDS011;3792;47.740;7.606;2023-06-14T06:38:48;4.40;;;3.97;;
7501;SDS011;3792;47.740;7.606;2023-06-14T06:41:15;9.33;;;4.93;;
7501;SDS011;3792;47.740;7.606;2023-06-14T06:43:42;10.17;;;4.80;;
7501;SDS011;3792;47.740;7.606;2023-06-14T06:46:09;7.37;;;5.17;;
7501;SDS011;3792;47.740;7.606;2023-06-14T06:48:39;8.57;;;5.47;;
7501;SDS011;3792;47.740;7.606;2023-06-14T06:51:06;14.90;;;5.37;;
7501;SDS011;3792;47.740;7.606;2023-06-14T06:53:33;5.47;;;4.97;;
7501;SDS011;3792;47.740;7.606;2023-06-14T06:56:00;9.40;;;5.30;;
7501;SDS011;3792;47.740;7.606;2023-06-14T06:58:27;6.20;;;5.17;;
7501;SDS011;3792;47.740;7.606;2023-06-14T07:00:54;5.87;;;4.60;;
7501;SDS011;3792;47.740;7.606;2023-06-14T07:03:21;9.43;;;5.30;;
7501;SDS011;3792;47.740;7.606;2023-06-14T07:05:49;6.97;;;5.47;;
7501;SDS011;3792;47.740;7.606;2023-06-14T07:08:16;6.53;;;5.07;;
7501;SDS011;3792;47.740;7.606;2023-06-14T07:10:43;11.43;;;5.63;;
7501;SDS011;3792;47.740;7.606;2023-06-14T07:13:10;7.00;;;6.27;;
7501;SDS011;3792;47.740;7.606;2023-06-14T07:15:37;6.13;;;5.20;;
7501;SDS011;3792;47.740;7.606;2023-06-14T07:18:04;9.83;;;4.90;;
7501;SDS011;3792;47.740;7.606;2023-06-14T07:20:33;8.20;;;4.77;;
7501;SDS011;3792;47.740;7.606;2023-06-14T07:23:01;7.80;;;5.23;;
7501;SDS011;3792;47.740;7.606;2023-06-14T07:25:28;7.57;;;4.93;;
7501;SDS011;3792;47.740;7.606;2023-06-14T07:27:55;5.43;;;4.30;;
7501;SDS011;3792;47.740;7.606;2023-06-14T07:30:22;7.57;;;5.80;;
7501;SDS011;3792;47.740;7.606;2023-06-14T07:32:52;10.70;;;5.43;;
7501;SDS011;3792;47.740;7.606;2023-06-14T07:35:19;10.10;;;4.77;;
7501;SDS011;3792;47.740;7.606;2023-06-14T07:37:46;10.00;;;4.50;;
7501;SDS011;3792;47.740;7.606;2023-06-14T07:40:16;9.03;;;4.33;;
7501;SDS011;3792;47.740;7.606;2023-06-14T07:42:43;9.93;;;4.57;;
7501;SDS011;3792;47.740;7.606;2023-06-14T07:45:14;6.63;;;4.87;;
7501;SDS011;3792;47.740;7.606;2023-06-14T07:47:41;6.67;;;4.63;;
7501;SDS011;3792;47.740;7.606;2023-06-14T07:50:08;9.63;;;4.70;;
7501;SDS011;3792;47.740;7.606;2023-06-14T07:52:36;6.60;;;4.63;;
7501;SDS011;3792;47.740;7.606;2023-06-14T07:55:04;5.27;;;4.30;;
7501;SDS011;3792;47.740;7.606;2023-06-14T07:57:33;7.47;;;4.83;;
7501;SDS011;3792;47.740;7.606;2023-06-14T08:00:00;7.17;;;5.03;;
7501;SDS011;3792;47.740;7.606;2023-06-14T08:02:27;5.10;;;4.10;;
7501;SDS011;3792;47.740;7.606;2023-06-14T08:04:54;6.87;;;4.30;;
7501;SDS011;3792;47.740;7.606;2023-06-14T08:07:21;7.40;;;4.20;;
7501;SDS011;3792;47.740;7.606;2023-06-14T08:09:48;9.70;;;4.20;;
7501;SDS011;3792;47.740;7.606;2023-06-14T08:12:15;7.23;;;4.20;;
7501;SDS011;3792;47.740;7.606;2023-06-14T08:14:43;7.83;;;4.37;;
7501;SDS011;3792;47.740;7.606;2023-06-14T08:17:10;4.97;;;4.10;;
7501;SDS011;3792;47.740;7.606;2023-06-14T08:19:37;6.23;;;3.87;;
7501;SDS011;3792;47.740;7.606;2023-06-14T08:22:04;7.40;;;4.00;;
7501;SDS011;3792;47.740;7.606;2023-06-14T08:24:32;12.20;;;4.30;;
7501;SDS011;3792;47.740;7.606;2023-06-14T08:26:59;13.57;;;4.40;;
7501;SDS011;3792;47.740;7.606;2023-06-14T08:29:27;6.00;;;3.93;;
7501;SDS011;3792;47.740;7.606;2023-06-14T08:31:57;5.50;;;3.73;;
7501;SDS011;3792;47.740;7.606;2023-06-14T08:34:25;8.13;;;4.57;;
7501;SDS011;3792;47.740;7.606;2023-06-14T08:36:52;7.63;;;4.27;;
7501;SDS011;3792;47.740;7.606;2023-06-14T08:39:19;5.13;;;3.97;;
7501;SDS011;3792;47.740;7.606;2023-06-14T08:41:47;7.60;;;4.20;;
7501;SDS011;3792;47.740;7.606;2023-06-14T08:44:14;4.40;;;3.63;;
7501;SDS011;3792;47.740;7.606;2023-06-14T08:46:41;4.60;;;3.80;;
7501;SDS011;3792;47.740;7.606;2023-06-14T08:49:11;5.43;;;4.30;;
7501;SDS011;3792;47.740;7.606;2023-06-14T08:51:39;4.20;;;3.60;;
7501;SDS011;3792;47.740;7.606;2023-06-14T08:54:06;5.63;;;4.30;;
7501;SDS011;3792;47.740;7.606;2023-06-14T08:56:34;8.27;;;4.30;;
7501;SDS011;3792;47.740;7.606;2023-06-14T08:59:06;7.13;;;4.40;;
7501;SDS011;3792;47.740;7.606;2023-06-14T09:01:35;6.67;;;4.63;;
7501;SDS011;3792;47.740;7.606;2023-06-14T09:04:03;4.57;;;4.17;;
7501;SDS011;3792;47.740;7.606;2023-06-14T09:06:32;6.33;;;4.40;;
7501;SDS011;3792;47.740;7.606;2023-06-14T09:09:02;5.87;;;4.00;;
7501;SDS011;3792;47.740;7.606;2023-06-14T09:11:29;5.63;;;4.23;;
7501;SDS011;3792;47.740;7.606;2023-06-14T09:13:57;5.33;;;3.70;;
7501;SDS011;3792;47.740;7.606;2023-06-14T09:16:24;8.47;;;4.40;;
7501;SDS011;3792;47.740;7.606;2023-06-14T09:18:52;8.03;;;4.50;;
7501;SDS011;3792;47.740;7.606;2023-06-14T09:21:20;5.93;;;4.23;;
7501;SDS011;3792;47.740;7.606;2023-06-14T09:23:49;7.63;;;4.60;;
7501;SDS011;3792;47.740;7.606;2023-06-14T09:26:16;7.57;;;4.50;;
7501;SDS011;3792;47.740;7.606;2023-06-14T09:28:44;8.67;;;4.87;;
7501;SDS011;3792;47.740;7.606;2023-06-14T09:31:12;9.97;;;4.30;;
7501;SDS011;3792;47.740;7.606;2023-06-14T09:33:41;8.60;;;4.40;;
7501;SDS011;3792;47.740;7.606;2023-06-14T09:36:13;6.37;;;4.63;;
7501;SDS011;3792;47.740;7.606;2023-06-14T09:38:42;11.37;;;4.47;;
7501;SDS011;3792;47.740;7.606;2023-06-14T09:41:19;7.43;;;4.37;;
7501;SDS011;3792;47.740;7.606;2023-06-14T09:43:46;6.70;;;4.30;;
7501;SDS011;3792;47.740;7.606;2023-06-14T09:46:14;6.30;;;4.30;;
7501;SDS011;3792;47.740;7.606;2023-06-14T09:48:42;5.53;;;4.03;;
7501;SDS011;3792;47.740;7.606;2023-06-14T09:51:09;5.83;;;4.30;;
7501;SDS011;3792;47.740;7.606;2023-06-14T09:53:40;10.57;;;4.03;;
7501;SDS011;3792;47.740;7.606;2023-06-14T09:56:09;6.13;;;4.10;;
7501;SDS011;3792;47.740;7.606;2023-06-14T09:58:39;4.30;;;3.90;;
7501;SDS011;3792;47.740;7.606;2023-06-14T10:01:06;7.90;;;4.20;;
7501;SDS011;3792;47.740;7.606;2023-06-14T10:03:38;6.20;;;4.00;;
7501;SDS011;3792;47.740;7.606;2023-06-14T10:06:07;6.47;;;4.17;;
7501;SDS011;3792;47.740;7.606;2023-06-14T10:08:35;6.97;;;3.47;;
7501;SDS011;3792;47.740;7.606;2023-06-14T10:11:04;4.37;;;3.97;;
7501;SDS011;3792;47.740;7.606;2023-06-14T10:13:31;4.30;;;3.90;;
7501;SDS011;3792;47.740;7.606;2023-06-14T10:16:03;6.23;;;4.20;;
7501;SDS011;3792;47.740;7.606;2023-06-14T10:18:36;6.63;;;4.37;;
7501;SDS011;3792;47.740;7.606;2023-06-14T10:21:13;6.57;;;4.03;;
7501;SDS011;3792;47.740;7.606;2023-06-14T10:23:48;7.37;;;4.10;;
7501;SDS011;3792;47.740;7.606;2023-06-14T10:26:20;6.77;;;4.13;;
7501;SDS011;3792;47.740;7.606;2023-06-14T10:28:56;8.93;;;4.13;;
7501;SDS011;3792;47.740;7.606;2023-06-14T10:34:23;4.40;;;3.73;;
7501;SDS011;3792;47.740;7.606;2023-06-14T10:37:00;5.43;;;4.30;;
7501;SDS011;3792;47.740;7.606;2023-06-14T10:39:29;4.27;;;3.87;;
7501;SDS011;3792;47.740;7.606;2023-06-14T10:41:58;5.97;;;3.97;;
7501;SDS011;3792;47.740;7.606;2023-06-14T10:44:38;5.07;;;3.50;;
7501;SDS011;3792;47.740;7.606;2023-06-14T10:47:10;4.90;;;4.07;;
7501;SDS011;3792;47.740;7.606;2023-06-14T10:49:49;6.10;;;3.60;;
7501;SDS011;3792;47.740;7.606;2023-06-14T10:52:20;5.63;;;3.70;;
7501;SDS011;3792;47.740;7.606;2023-06-14T10:55:02;7.13;;;3.70;;
7501;SDS011;3792;47.740;7.606;2023-06-14T10:57:31;4.53;;;3.53;;
7501;SDS011;3792;47.740;7.606;2023-06-14T10:59:58;4.30;;;3.90;;
7501;SDS011;3792;47.740;7.606;2023-06-14T11:05:57;3.80;;;3.50;;
7501;SDS011;3792;47.740;7.606;2023-06-14T11:11:37;4.00;;;3.70;;
7501;SDS011;3792;47.740;7.606;2023-06-14T11:14:08;6.27;;;4.10;;
7501;SDS011;3792;47.740;7.606;2023-06-14T11:16:36;6.90;;;3.73;;
7501;SDS011;3792;47.740;7.606;2023-06-14T11:19:03;4.97;;;3.97;;
7501;SDS011;3792;47.740;7.606;2023-06-14T11:21:32;6.87;;;4.00;;
7501;SDS011;3792;47.740;7.606;2023-06-14T11:23:59;5.37;;;4.13;;
7501;SDS011;3792;47.740;7.606;2023-06-14T11:26:27;9.17;;;4.73;;
7501;SDS011;3792;47.740;7.606;2023-06-14T11:28:55;8.00;;;4.10;;
7501;SDS011;3792;47.740;7.606;2023-06-14T11:31:23;4.70;;;4.00;;
7501;SDS011;3792;47.740;7.606;2023-06-14T11:33:53;6.00;;;4.10;;
7501;SDS011;3792;47.740;7.606;2023-06-14T11:36:21;6.57;;;4.00;;
7501;SDS011;3792;47.740;7.606;2023-06-14T11:38:50;7.23;;;3.93;;
7501;SDS011;3792;47.740;7.606;2023-06-14T11:41:25;6.10;;;3.77;;
7501;SDS011;3792;47.740;7.606;2023-06-14T11:43:52;4.43;;;3.77;;
7501;SDS011;3792;47.740;7.606;2023-06-14T11:46:19;7.27;;;4.00;;
7501;SDS011;3792;47.740;7.606;2023-06-14T11:48:49;6.73;;;3.60;;
7501;SDS011;3792;47.740;7.606;2023-06-14T11:51:19;4.20;;;3.90;;
7501;SDS011;3792;47.740;7.606;2023-06-14T11:53:46;4.47;;;3.67;;
7501;SDS011;3792;47.740;7.606;2023-06-14T11:56:15;6.60;;;4.33;;
7501;SDS011;3792;47.740;7.606;2023-06-14T11:58:42;6.33;;;4.33;;
7501;SDS011;3792;47.740;7.606;2023-06-14T12:01:09;3.93;;;3.63;;
7501;SDS011;3792;47.740;7.606;2023-06-14T12:04:05;10.23;;;4.10;;
7501;SDS011;3792;47.740;7.606;2023-06-14T12:06:45;7.63;;;4.20;;
7501;SDS011;3792;47.740;7.606;2023-06-14T12:09:41;7.73;;;4.10;;
7501;SDS011;3792;47.740;7.606;2023-06-14T12:12:11;5.20;;;3.97;;
7501;SDS011;3792;47.740;7.606;2023-06-14T12:14:41;5.47;;;3.77;;
7501;SDS011;3792;47.740;7.606;2023-06-14T12:17:08;4.60;;;4.20;;
7501;SDS011;3792;47.740;7.606;2023-06-14T12:19:41;4.60;;;4.20;;
7501;SDS011;3792;47.740;7.606;2023-06-14T12:22:11;4.60;;;3.80;;
7501;SDS011;3792;47.740;7.606;2023-06-14T12:24:45;4.73;;;4.10;;
7501;SDS011;3792;47.740;7.606;2023-06-14T12:30:28;4.60;;;4.20;;
7501;SDS011;3792;47.740;7.606;2023-06-14T12:32:55;5.80;;;3.87;;
7501;SDS011;3792;47.740;7.606;2023-06-14T12:35:22;4.27;;;3.83;;
7501;SDS011;3792;47.740;7.606;2023-06-14T12:37:50;4.27;;;3.97;;
7501;SDS011;3792;47.740;7.606;2023-06-14T12:40:17;4.87;;;4.30;;
7501;SDS011;3792;47.740;7.606;2023-06-14T12:42:44;6.10;;;4.03;;
7501;SDS011;3792;47.740;7.606;2023-06-14T12:45:12;4.40;;;4.00;;
7501;SDS011;3792;47.740;7.606;2023-06-14T12:47:41;4.53;;;3.80;;
7501;SDS011;3792;47.740;7.606;2023-06-14T12:50:08;6.10;;;4.13;;
7501;SDS011;3792;47.740;7.606;2023-06-14T12:52:36;4.47;;;4.07;;
7501;SDS011;3792;47.740;7.606;2023-06-14T12:55:03;5.17;;;3.97;;
7501;SDS011;3792;47.740;7.606;2023-06-14T12:57:32;4.80;;;3.63;;
7501;SDS011;3792;47.740;7.606;2023-06-14T13:00:04;4.83;;;4.07;;
7501;SDS011;3792;47.740;7.606;2023-06-14T13:02:33;5.83;;;4.17;;
7501;SDS011;3792;47.740;7.606;2023-06-14T13:16:15;4.37;;;3.97;;
7501;SDS011;3792;47.740;7.606;2023-06-14T13:18:42;4.40;;;4.00;;
7501;SDS011;3792;47.740;7.606;2023-06-14T13:21:13;4.83;;;4.13;;
7501;SDS011;3792;47.740;7.606;2023-06-14T13:23:40;6.03;;;4.00;;
7501;SDS011;3792;47.740;7.606;2023-06-14T13:26:07;6.67;;;4.17;;
7501;SDS011;3792;47.740;7.606;2023-06-14T13:28:36;4.30;;;3.90;;
7501;SDS011;3792;47.740;7.606;2023-06-14T13:31:04;6.97;;;3.73;;
7501;SDS011;3792;47.740;7.606;2023-06-14T13:33:31;6.23;;;4.17;;
7501;SDS011;3792;47.740;7.606;2023-06-14T13:35:58;6.37;;;4.23;;
7501;SDS011;3792;47.740;7.606;2023-06-14T13:38:25;6.43;;;4.50;;
7501;SDS011;3792;47.740;7.606;2023-06-14T13:40:52;4.57;;;4.13;;
7501;SDS011;3792;47.740;7.606;2023-06-14T13:43:20;6.20;;;4.20;;
7501;SDS011;3792;47.740;7.606;2023-06-14T13:45:49;5.63;;;4.13;;
7501;SDS011;3792;47.740;7.606;2023-06-14T13:48:17;6.50;;;4.00;;
7501;SDS011;3792;47.740;7.606;2023-06-14T13:53:20;4.73;;;4.03;;
7501;SDS011;3792;47.740;7.606;2023-06-14T13:55:47;4.13;;;3.60;;
7501;SDS011;3792;47.740;7.606;2023-06-14T13:58:14;7.00;;;4.37;;
7501;SDS011;3792;47.740;7.606;2023-06-14T14:00:41;5.50;;;4.00;;
7501;SDS011;3792;47.740;7.606;2023-06-14T14:03:09;7.83;;;4.70;;
7501;SDS011;3792;47.740;7.606;2023-06-14T14:05:37;4.87;;;4.00;;
7501;SDS011;3792;47.740;7.606;2023-06-14T14:08:04;9.03;;;4.27;;
7501;SDS011;3792;47.740;7.606;2023-06-14T14:10:31;4.43;;;3.87;;
7501;SDS011;3792;47.740;7.606;2023-06-14T14:12:58;4.90;;;3.83;;
7501;SDS011;3792;47.740;7.606;2023-06-14T14:15:25;4.60;;;4.20;;
7501;SDS011;3792;47.740;7.606;2023-06-14T14:17:52;5.37;;;4.13;;
7501;SDS011;3792;47.740;7.606;2023-06-14T14:20:21;6.57;;;4.23;;
7501;SDS011;3792;47.740;7.606;2023-06-14T14:22:48;5.17;;;4.07;;
7501;SDS011;3792;47.740;7.606;2023-06-14T14:25:15;10.40;;;4.40;;
7501;SDS011;3792;47.740;7.606;2023-06-14T14:27:42;4.80;;;3.87;;
7501;SDS011;3792;47.740;7.606;2023-06-14T14:30:09;4.70;;;3.93;;
7501;SDS011;3792;47.740;7.606;2023-06-14T14:32:38;6.73;;;3.80;;
7501;SDS011;3792;47.740;7.606;2023-06-14T14:35:06;6.07;;;4.40;;
7501;SDS011;3792;47.740;7.606;2023-06-14T14:37:35;4.60;;;4.20;;
7501;SDS011;3792;47.740;7.606;2023-06-14T14:40:02;6.27;;;3.87;;
7501;SDS011;3792;47.740;7.606;2023-06-14T14:42:30;5.60;;;4.30;;
7501;SDS011;3792;47.740;7.606;2023-06-14T14:44:57;7.03;;;3.97;;
7501;SDS011;3792;47.740;7.606;2023-06-14T14:47:25;4.70;;;4.10;;
7501;SDS011;3792;47.740;7.606;2023-06-14T14:49:52;5.97;;;4.33;;
7501;SDS011;3792;47.740;7.606;2023-06-14T14:52:19;8.27;;;4.13;;
7501;SDS011;3792;47.740;7.606;2023-06-14T14:54:47;9.30;;;4.17;;
7501;SDS011;3792;47.740;7.606;2023-06-14T14:57:15;7.20;;;4.43;;
7501;SDS011;3792;47.740;7.606;2023-06-14T14:59:42;5.27;;;4.00;;
7501;SDS011;3792;47.740;7.606;2023-06-14T15:02:09;5.83;;;4.10;;
7501;SDS011;3792;47.740;7.606;2023-06-14T15:04:36;6.63;;;3.67;;
7501;SDS011;3792;47.740;7.606;2023-06-14T15:07:04;5.53;;;3.87;;
7501;SDS011;3792;47.740;7.606;2023-06-14T15:09:31;5.13;;;4.60;;
7501;SDS011;3792;47.740;7.606;2023-06-14T15:11:59;8.47;;;4.73;;
7501;SDS011;3792;47.740;7.606;2023-06-14T15:14:27;6.47;;;3.93;;
7501;SDS011;3792;47.740;7.606;2023-06-14T15:16:54;6.23;;;3.87;;
7501;SDS011;3792;47.740;7.606;2023-06-14T15:19:23;5.17;;;3.80;;
7501;SDS011;3792;47.740;7.606;2023-06-14T15:21:50;9.70;;;3.93;;
7501;SDS011;3792;47.740;7.606;2023-06-14T15:24:17;8.73;;;4.37;;
7501;SDS011;3792;47.740;7.606;2023-06-14T15:26:44;5.77;;;4.23;;
7501;SDS011;3792;47.740;7.606;2023-06-14T15:29:13;6.20;;;3.87;;
7501;SDS011;3792;47.740;7.606;2023-06-14T15:31:40;8.77;;;4.37;;
7501;SDS011;3792;47.740;7.606;2023-06-14T15:34:07;4.10;;;3.77;;
7501;SDS011;3792;47.740;7.606;2023-06-14T15:36:34;6.13;;;4.30;;
7501;SDS011;3792;47.740;7.606;2023-06-14T15:39:01;6.97;;;4.03;;
7501;SDS011;3792;47.740;7.606;2023-06-14T15:41:28;6.47;;;4.17;;
7501;SDS011;3792;47.740;7.606;2023-06-14T15:43:56;4.53;;;4.17;;
7501;SDS011;3792;47.740;7.606;2023-06-14T15:46:24;8.30;;;4.07;;
7501;SDS011;3792;47.740;7.606;2023-06-14T15:48:51;4.83;;;3.93;;